Terminal Aerodrome Forecast
Issued by NWS Quad Cities IA IL

Home | Current Version | Previous Version | Text Only | Print | Product List | Glossary On
Versions: 1 2 3 4 5 6 7 8 9 10 11 12 13 14 15 16
000
FTUS43 KDVN 052012 AAA
TAFMLI
TAF AMD
KMLI 052012Z 0520/0618 32009KT P6SM SKC
     FM060600 VRB03KT P6SM SKC
     FM061500 25010KT P6SM SKC=

USA.gov is the U.S. government's official web portal to all federal, state and local government web resources and services.